sensor_id;sensor_type;location;lat;lon;timestamp;temperature;humidity
48728;DHT22;34527;45.618;5.130;2022-11-10T00:02:07;12.70;99.90
48728;DHT22;34527;45.618;5.130;2022-11-10T00:04:32;12.70;99.90
48728;DHT22;34527;45.618;5.130;2022-11-10T00:06:58;12.70;99.90
48728;DHT22;34527;45.618;5.130;2022-11-10T00:09:24;12.60;99.90
48728;DHT22;34527;45.618;5.130;2022-11-10T00:11:50;12.60;99.90
48728;DHT22;34527;45.618;5.130;2022-11-10T00:14:16;12.70;99.90
48728;DHT22;34527;45.618;5.130;2022-11-10T00:17:00;12.60;99.90
48728;DHT22;34527;45.618;5.130;2022-11-10T00:19:27;12.70;99.90
48728;DHT22;34527;45.618;5.130;2022-11-10T00:21:53;12.60;99.90
48728;DHT22;34527;45.618;5.130;2022-11-10T00:24:20;12.70;99.90
48728;DHT22;34527;45.618;5.130;2022-11-10T00:26:46;12.60;99.90
48728;DHT22;34527;45.618;5.130;2022-11-10T00:29:12;12.70;99.90
48728;DHT22;34527;45.618;5.130;2022-11-10T00:31:39;12.70;99.90
48728;DHT22;34527;45.618;5.130;2022-11-10T00:34:05;12.70;99.90
48728;DHT22;34527;45.618;5.130;2022-11-10T00:36:33;12.70;99.90
48728;DHT22;34527;45.618;5.130;2022-11-10T00:38:59;12.70;99.90
48728;DHT22;34527;45.618;5.130;2022-11-10T00:41:25;12.60;99.90
48728;DHT22;34527;45.618;5.130;2022-11-10T00:43:51;12.70;99.90
48728;DHT22;34527;45.618;5.130;2022-11-10T00:46:17;12.60;99.90
48728;DHT22;34527;45.618;5.130;2022-11-10T00:48:43;12.70;99.90
48728;DHT22;34527;45.618;5.130;2022-11-10T00:53:47;12.60;99.90
48728;DHT22;34527;45.618;5.130;2022-11-10T00:56:13;12.60;99.90
48728;DHT22;34527;45.618;5.130;2022-11-10T00:58:38;12.60;99.90
48728;DHT22;34527;45.618;5.130;2022-11-10T01:01:05;12.50;99.90
48728;DHT22;34527;45.618;5.130;2022-11-10T01:03:31;12.50;99.90
48728;DHT22;34527;45.618;5.130;2022-11-10T01:05:58;12.50;99.90
48728;DHT22;34527;45.618;5.130;2022-11-10T01:08:24;12.40;99.90
48728;DHT22;34527;45.618;5.130;2022-11-10T01:10:50;12.40;99.90
48728;DHT22;34527;45.618;5.130;2022-11-10T01:13:15;12.40;99.90
48728;DHT22;34527;45.618;5.130;2022-11-10T01:15:42;12.30;99.90
48728;DHT22;34527;45.618;5.130;2022-11-10T01:18:07;12.30;99.90
48728;DHT22;34527;45.618;5.130;2022-11-10T01:20:34;12.30;99.90
48728;DHT22;34527;45.618;5.130;2022-11-10T01:23:00;12.30;99.90
48728;DHT22;34527;45.618;5.130;2022-11-10T01:25:26;12.20;99.90
48728;DHT22;34527;45.618;5.130;2022-11-10T01:27:52;12.20;99.90
48728;DHT22;34527;45.618;5.130;2022-11-10T01:30:18;12.20;99.90
48728;DHT22;34527;45.618;5.130;2022-11-10T01:32:45;12.20;99.90
48728;DHT22;34527;45.618;5.130;2022-11-10T01:35:11;12.30;99.90
48728;DHT22;34527;45.618;5.130;2022-11-10T01:37:36;12.30;99.90
48728;DHT22;34527;45.618;5.130;2022-11-10T01:40:03;12.30;99.90
48728;DHT22;34527;45.618;5.130;2022-11-10T01:48:08;12.30;99.90
48728;DHT22;34527;45.618;5.130;2022-11-10T01:50:38;12.30;99.90
48728;DHT22;34527;45.618;5.130;2022-11-10T01:53:09;12.40;99.90
48728;DHT22;34527;45.618;5.130;2022-11-10T01:55:39;12.30;99.90
48728;DHT22;34527;45.618;5.130;2022-11-10T01:58:06;12.30;99.90
48728;DHT22;34527;45.618;5.130;2022-11-10T02:00:33;12.30;99.90
48728;DHT22;34527;45.618;5.130;2022-11-10T02:03:20;12.30;99.90
48728;DHT22;34527;45.618;5.130;2022-11-10T02:05:48;12.30;99.90
48728;DHT22;34527;45.618;5.130;2022-11-10T02:08:15;12.30;99.90
48728;DHT22;34527;45.618;5.130;2022-11-10T02:10:42;12.30;99.90
48728;DHT22;34527;45.618;5.130;2022-11-10T02:13:10;12.30;99.90
48728;DHT22;34527;45.618;5.130;2022-11-10T02:15:36;12.30;99.90
48728;DHT22;34527;45.618;5.130;2022-11-10T02:18:03;12.30;99.90
48728;DHT22;34527;45.618;5.130;2022-11-10T02:20:28;12.30;99.90
48728;DHT22;34527;45.618;5.130;2022-11-10T02:22:54;12.30;99.90
48728;DHT22;34527;45.618;5.130;2022-11-10T02:25:21;12.30;99.90
48728;DHT22;34527;45.618;5.130;2022-11-10T02:27:47;12.20;99.90
48728;DHT22;34527;45.618;5.130;2022-11-10T02:30:14;12.20;99.90
48728;DHT22;34527;45.618;5.130;2022-11-10T02:32:40;12.20;99.90
48728;DHT22;34527;45.618;5.130;2022-11-10T02:35:06;12.10;99.90
48728;DHT22;34527;45.618;5.130;2022-11-10T02:37:33;12.10;99.90
48728;DHT22;34527;45.618;5.130;2022-11-10T02:39:58;12.10;99.90
48728;DHT22;34527;45.618;5.130;2022-11-10T02:42:24;12.00;99.90
48728;DHT22;34527;45.618;5.130;2022-11-10T02:44:50;12.00;99.90
48728;DHT22;34527;45.618;5.130;2022-11-10T02:47:16;12.00;99.90
48728;DHT22;34527;45.618;5.130;2022-11-10T02:49:42;12.00;99.90
48728;DHT22;34527;45.618;5.130;2022-11-10T02:52:09;11.90;99.90
48728;DHT22;34527;45.618;5.130;2022-11-10T02:54:35;11.90;99.90
48728;DHT22;34527;45.618;5.130;2022-11-10T02:57:01;11.90;99.90
48728;DHT22;34527;45.618;5.130;2022-11-10T02:59:27;11.90;99.90
48728;DHT22;34527;45.618;5.130;2022-11-10T03:01:53;11.90;99.90
48728;DHT22;34527;45.618;5.130;2022-11-10T03:04:19;11.90;99.90
48728;DHT22;34527;45.618;5.130;2022-11-10T03:06:45;11.90;99.90
48728;DHT22;34527;45.618;5.130;2022-11-10T03:09:11;11.90;99.90
48728;DHT22;34527;45.618;5.130;2022-11-10T03:11:37;11.90;99.90
48728;DHT22;34527;45.618;5.130;2022-11-10T03:14:02;11.90;99.90
48728;DHT22;34527;45.618;5.130;2022-11-10T03:16:29;11.90;99.90
48728;DHT22;34527;45.618;5.130;2022-11-10T03:18:55;11.90;99.90
48728;DHT22;34527;45.618;5.130;2022-11-10T03:21:20;11.90;99.90
48728;DHT22;34527;45.618;5.130;2022-11-10T03:23:46;11.90;99.90
48728;DHT22;34527;45.618;5.130;2022-11-10T03:26:12;11.90;99.90
48728;DHT22;34527;45.618;5.130;2022-11-10T03:28:38;11.90;99.90
48728;DHT22;34527;45.618;5.130;2022-11-10T03:31:04;11.90;99.90
48728;DHT22;34527;45.618;5.130;2022-11-10T03:33:30;11.90;99.90
48728;DHT22;34527;45.618;5.130;2022-11-10T03:35:56;11.90;99.90
48728;DHT22;34527;45.618;5.130;2022-11-10T03:38:22;11.90;99.90
48728;DHT22;34527;45.618;5.130;2022-11-10T03:40:49;11.80;99.90
48728;DHT22;34527;45.618;5.130;2022-11-10T03:43:15;11.90;99.90
48728;DHT22;34527;45.618;5.130;2022-11-10T03:45:43;11.80;99.90
48728;DHT22;34527;45.618;5.130;2022-11-10T03:48:09;11.90;99.90
48728;DHT22;34527;45.618;5.130;2022-11-10T03:50:35;11.80;99.90
48728;DHT22;34527;45.618;5.130;2022-11-10T03:53:01;11.80;99.90
48728;DHT22;34527;45.618;5.130;2022-11-10T03:55:27;11.90;99.90
48728;DHT22;34527;45.618;5.130;2022-11-10T03:57:52;11.90;99.90
48728;DHT22;34527;45.618;5.130;2022-11-10T04:00:18;11.90;99.90
48728;DHT22;34527;45.618;5.130;2022-11-10T04:02:44;11.90;99.90
48728;DHT22;34527;45.618;5.130;2022-11-10T04:05:10;11.90;99.90
48728;DHT22;34527;45.618;5.130;2022-11-10T04:07:59;11.90;99.90
48728;DHT22;34527;45.618;5.130;2022-11-10T04:10:44;11.90;99.90
48728;DHT22;34527;45.618;5.130;2022-11-10T04:13:10;11.90;99.90
48728;DHT22;34527;45.618;5.130;2022-11-10T04:15:54;11.90;99.90
48728;DHT22;34527;45.618;5.130;2022-11-10T04:18:20;11.80;99.90
48728;DHT22;34527;45.618;5.130;2022-11-10T04:20:50;11.80;99.90
48728;DHT22;34527;45.618;5.130;2022-11-10T04:23:17;11.90;99.90
48728;DHT22;34527;45.618;5.130;2022-11-10T04:25:53;11.80;99.90
48728;DHT22;34527;45.618;5.130;2022-11-10T04:28:37;11.80;99.90
48728;DHT22;34527;45.618;5.130;2022-11-10T04:31:04;11.80;99.90
48728;DHT22;34527;45.618;5.130;2022-11-10T04:33:30;11.80;99.90
48728;DHT22;34527;45.618;5.130;2022-11-10T04:35:56;11.80;99.90
48728;DHT22;34527;45.618;5.130;2022-11-10T04:38:22;11.80;99.90
48728;DHT22;34527;45.618;5.130;2022-11-10T04:40:48;11.80;99.90
48728;DHT22;34527;45.618;5.130;2022-11-10T04:43:14;11.80;99.90
48728;DHT22;34527;45.618;5.130;2022-11-10T04:45:39;11.80;99.90
48728;DHT22;34527;45.618;5.130;2022-11-10T04:48:05;11.80;99.90
48728;DHT22;34527;45.618;5.130;2022-11-10T04:50:31;11.80;99.90
48728;DHT22;34527;45.618;5.130;2022-11-10T04:52:57;11.70;99.90
48728;DHT22;34527;45.618;5.130;2022-11-10T04:55:23;11.70;99.90
48728;DHT22;34527;45.618;5.130;2022-11-10T04:57:49;11.70;99.90
48728;DHT22;34527;45.618;5.130;2022-11-10T05:00:15;11.70;99.90
48728;DHT22;34527;45.618;5.130;2022-11-10T05:02:41;11.70;99.90
48728;DHT22;34527;45.618;5.130;2022-11-10T05:05:07;11.70;99.90
48728;DHT22;34527;45.618;5.130;2022-11-10T05:07:33;11.60;99.90
48728;DHT22;34527;45.618;5.130;2022-11-10T05:09:59;11.70;99.90
48728;DHT22;34527;45.618;5.130;2022-11-10T05:12:25;11.60;99.90
48728;DHT22;34527;45.618;5.130;2022-11-10T05:14:51;11.60;99.90
48728;DHT22;34527;45.618;5.130;2022-11-10T05:17:16;11.60;99.90
48728;DHT22;34527;45.618;5.130;2022-11-10T05:19:42;11.60;99.90
48728;DHT22;34527;45.618;5.130;2022-11-10T05:22:08;11.60;99.90
48728;DHT22;34527;45.618;5.130;2022-11-10T05:24:34;11.50;99.90
48728;DHT22;34527;45.618;5.130;2022-11-10T05:27:00;11.50;99.90
48728;DHT22;34527;45.618;5.130;2022-11-10T05:29:25;11.50;99.90
48728;DHT22;34527;45.618;5.130;2022-11-10T05:31:51;11.50;99.90
48728;DHT22;34527;45.618;5.130;2022-11-10T05:34:17;11.40;99.90
48728;DHT22;34527;45.618;5.130;2022-11-10T05:36:43;11.50;99.90
48728;DHT22;34527;45.618;5.130;2022-11-10T05:39:09;11.50;99.90
48728;DHT22;34527;45.618;5.130;2022-11-10T05:41:35;11.40;99.90
48728;DHT22;34527;45.618;5.130;2022-11-10T05:44:00;11.40;99.90
48728;DHT22;34527;45.618;5.130;2022-11-10T05:46:26;11.40;99.90
48728;DHT22;34527;45.618;5.130;2022-11-10T05:48:52;11.40;99.90
48728;DHT22;34527;45.618;5.130;2022-11-10T05:51:18;11.40;99.90
48728;DHT22;34527;45.618;5.130;2022-11-10T05:53:44;11.40;99.90
48728;DHT22;34527;45.618;5.130;2022-11-10T05:56:09;11.40;99.90
48728;DHT22;34527;45.618;5.130;2022-11-10T05:58:35;11.30;99.90
48728;DHT22;34527;45.618;5.130;2022-11-10T06:01:01;11.30;99.90
48728;DHT22;34527;45.618;5.130;2022-11-10T06:03:27;11.30;99.90
48728;DHT22;34527;45.618;5.130;2022-11-10T06:05:53;11.30;99.90
48728;DHT22;34527;45.618;5.130;2022-11-10T06:08:19;11.30;99.90
48728;DHT22;34527;45.618;5.130;2022-11-10T06:10:45;11.30;99.90
48728;DHT22;34527;45.618;5.130;2022-11-10T06:13:11;11.30;99.90
48728;DHT22;34527;45.618;5.130;2022-11-10T06:15:37;11.20;99.90
48728;DHT22;34527;45.618;5.130;2022-11-10T06:18:03;11.20;99.90
48728;DHT22;34527;45.618;5.130;2022-11-10T06:20:29;11.10;99.90
48728;DHT22;34527;45.618;5.130;2022-11-10T06:23:01;11.10;99.90
48728;DHT22;34527;45.618;5.130;2022-11-10T06:25:32;11.00;99.90
48728;DHT22;34527;45.618;5.130;2022-11-10T06:27:58;11.00;99.90
48728;DHT22;34527;45.618;5.130;2022-11-10T06:30:26;11.00;99.90
48728;DHT22;34527;45.618;5.130;2022-11-10T06:32:53;10.90;99.90
48728;DHT22;34527;45.618;5.130;2022-11-10T06:35:20;10.90;99.90
48728;DHT22;34527;45.618;5.130;2022-11-10T06:37:55;10.90;99.90
48728;DHT22;34527;45.618;5.130;2022-11-10T06:40:21;10.90;99.90
48728;DHT22;34527;45.618;5.130;2022-11-10T06:42:47;10.90;99.90
48728;DHT22;34527;45.618;5.130;2022-11-10T06:45:13;10.90;99.90
48728;DHT22;34527;45.618;5.130;2022-11-10T06:47:39;10.80;99.90
48728;DHT22;34527;45.618;5.130;2022-11-10T06:50:05;10.80;99.90
48728;DHT22;34527;45.618;5.130;2022-11-10T06:52:31;10.80;99.90
48728;DHT22;34527;45.618;5.130;2022-11-10T06:54:57;10.80;99.90
48728;DHT22;34527;45.618;5.130;2022-11-10T06:57:23;10.80;99.90
48728;DHT22;34527;45.618;5.130;2022-11-10T06:59:49;10.80;99.90
48728;DHT22;34527;45.618;5.130;2022-11-10T07:02:15;10.80;99.90
48728;DHT22;34527;45.618;5.130;2022-11-10T07:04:41;10.80;99.90
48728;DHT22;34527;45.618;5.130;2022-11-10T07:07:08;10.80;99.90
48728;DHT22;34527;45.618;5.130;2022-11-10T07:09:34;10.80;99.90
48728;DHT22;34527;45.618;5.130;2022-11-10T07:11:59;10.80;99.90
48728;DHT22;34527;45.618;5.130;2022-11-10T07:14:25;10.80;99.90
48728;DHT22;34527;45.618;5.130;2022-11-10T07:16:51;10.80;99.90
48728;DHT22;34527;45.618;5.130;2022-11-10T07:19:17;10.80;99.90
48728;DHT22;34527;45.618;5.130;2022-11-10T07:21:44;10.80;99.90
48728;DHT22;34527;45.618;5.130;2022-11-10T07:24:10;10.80;99.90
48728;DHT22;34527;45.618;5.130;2022-11-10T07:26:36;10.80;99.90
48728;DHT22;34527;45.618;5.130;2022-11-10T07:29:02;10.80;99.90
48728;DHT22;34527;45.618;5.130;2022-11-10T07:31:27;10.80;99.90
48728;DHT22;34527;45.618;5.130;2022-11-10T07:33:53;10.80;99.90
48728;DHT22;34527;45.618;5.130;2022-11-10T07:36:19;10.70;99.90
48728;DHT22;34527;45.618;5.130;2022-11-10T07:38:46;10.70;99.90
48728;DHT22;34527;45.618;5.130;2022-11-10T07:41:12;10.80;99.90
48728;DHT22;34527;45.618;5.130;2022-11-10T07:43:38;10.80;99.90
48728;DHT22;34527;45.618;5.130;2022-11-10T07:46:04;10.70;99.90
48728;DHT22;34527;45.618;5.130;2022-11-10T07:48:37;10.70;99.90
48728;DHT22;34527;45.618;5.130;2022-11-10T07:51:10;10.70;99.90
48728;DHT22;34527;45.618;5.130;2022-11-10T07:53:40;10.80;99.90
48728;DHT22;34527;45.618;5.130;2022-11-10T07:56:10;10.80;99.90
48728;DHT22;34527;45.618;5.130;2022-11-10T07:58:36;10.80;99.90
48728;DHT22;34527;45.618;5.130;2022-11-10T08:01:03;10.80;99.90
48728;DHT22;34527;45.618;5.130;2022-11-10T08:03:29;10.80;99.90
48728;DHT22;34527;45.618;5.130;2022-11-10T08:05:55;10.80;99.90
48728;DHT22;34527;45.618;5.130;2022-11-10T08:08:21;10.70;99.90
48728;DHT22;34527;45.618;5.130;2022-11-10T08:10:47;10.70;99.90
48728;DHT22;34527;45.618;5.130;2022-11-10T08:13:13;10.70;99.90
48728;DHT22;34527;45.618;5.130;2022-11-10T08:15:39;10.70;99.90
48728;DHT22;34527;45.618;5.130;2022-11-10T08:18:20;10.80;99.90
48728;DHT22;34527;45.618;5.130;2022-11-10T08:20:46;10.80;99.90
48728;DHT22;34527;45.618;5.130;2022-11-10T08:23:13;10.80;99.90
48728;DHT22;34527;45.618;5.130;2022-11-10T08:25:39;10.80;99.90
48728;DHT22;34527;45.618;5.130;2022-11-10T08:28:11;10.80;99.90
48728;DHT22;34527;45.618;5.130;2022-11-10T08:30:38;10.80;99.90
48728;DHT22;34527;45.618;5.130;2022-11-10T08:33:06;10.80;99.90
48728;DHT22;34527;45.618;5.130;2022-11-10T08:35:36;10.80;99.90
48728;DHT22;34527;45.618;5.130;2022-11-10T08:38:10;10.80;99.90
48728;DHT22;34527;45.618;5.130;2022-11-10T08:40:37;10.80;99.90
48728;DHT22;34527;45.618;5.130;2022-11-10T08:43:03;10.80;99.90
48728;DHT22;34527;45.618;5.130;2022-11-10T08:45:36;10.80;99.90
48728;DHT22;34527;45.618;5.130;2022-11-10T08:48:06;10.90;99.90
48728;DHT22;34527;45.618;5.130;2022-11-10T08:50:34;10.80;99.90
48728;DHT22;34527;45.618;5.130;2022-11-10T08:53:02;10.80;99.90
48728;DHT22;34527;45.618;5.130;2022-11-10T08:55:28;10.80;99.90
48728;DHT22;34527;45.618;5.130;2022-11-10T08:57:58;10.80;99.90
48728;DHT22;34527;45.618;5.130;2022-11-10T09:00:25;10.70;99.90
48728;DHT22;34527;45.618;5.130;2022-11-10T09:02:54;10.70;99.90
48728;DHT22;34527;45.618;5.130;2022-11-10T09:05:21;10.80;99.90
48728;DHT22;34527;45.618;5.130;2022-11-10T09:07:48;10.80;99.90
48728;DHT22;34527;45.618;5.130;2022-11-10T09:10:14;10.70;99.90
48728;DHT22;34527;45.618;5.130;2022-11-10T09:12:41;10.80;99.90
48728;DHT22;34527;45.618;5.130;2022-11-10T09:15:08;10.80;99.90
48728;DHT22;34527;45.618;5.130;2022-11-10T09:17:35;10.70;99.90
48728;DHT22;34527;45.618;5.130;2022-11-10T09:20:02;10.60;99.90
48728;DHT22;34527;45.618;5.130;2022-11-10T09:22:28;10.60;99.90
48728;DHT22;34527;45.618;5.130;2022-11-10T09:24:54;10.60;99.90
48728;DHT22;34527;45.618;5.130;2022-11-10T09:27:20;10.60;99.90
48728;DHT22;34527;45.618;5.130;2022-11-10T09:29:46;10.70;99.90
48728;DHT22;34527;45.618;5.130;2022-11-10T09:32:11;10.60;99.90
48728;DHT22;34527;45.618;5.130;2022-11-10T09:34:37;10.70;99.90
48728;DHT22;34527;45.618;5.130;2022-11-10T09:37:03;10.70;99.90
48728;DHT22;34527;45.618;5.130;2022-11-10T09:39:29;10.80;99.90
48728;DHT22;34527;45.618;5.130;2022-11-10T09:41:55;10.70;99.90
48728;DHT22;34527;45.618;5.130;2022-11-10T09:47:10;10.70;99.90
48728;DHT22;34527;45.618;5.130;2022-11-10T09:49:38;10.70;99.90
48728;DHT22;34527;45.618;5.130;2022-11-10T09:52:06;10.70;99.90
48728;DHT22;34527;45.618;5.130;2022-11-10T09:54:41;10.80;99.90
48728;DHT22;34527;45.618;5.130;2022-11-10T09:57:26;10.80;99.90
48728;DHT22;34527;45.618;5.130;2022-11-10T09:59:52;10.80;99.90
48728;DHT22;34527;45.618;5.130;2022-11-10T10:02:38;10.80;99.90
48728;DHT22;34527;45.618;5.130;2022-11-10T10:05:34;10.70;99.90
48728;DHT22;34527;45.618;5.130;2022-11-10T10:08:09;10.80;99.90
48728;DHT22;34527;45.618;5.130;2022-11-10T10:10:46;10.90;99.90
48728;DHT22;34527;45.618;5.130;2022-11-10T10:18:36;10.80;99.90
48728;DHT22;34527;45.618;5.130;2022-11-10T10:23:51;10.90;99.90
48728;DHT22;34527;45.618;5.130;2022-11-10T10:26:28;11.00;99.90
48728;DHT22;34527;45.618;5.130;2022-11-10T10:29:15;11.10;99.90
48728;DHT22;34527;45.618;5.130;2022-11-10T10:31:47;11.10;99.90
48728;DHT22;34527;45.618;5.130;2022-11-10T10:34:25;11.20;99.90
48728;DHT22;34527;45.618;5.130;2022-11-10T10:36:52;11.20;99.90
48728;DHT22;34527;45.618;5.130;2022-11-10T10:41:55;11.20;99.90
48728;DHT22;34527;45.618;5.130;2022-11-10T10:44:21;11.20;99.90
48728;DHT22;34527;45.618;5.130;2022-11-10T10:46:56;11.30;99.90
48728;DHT22;34527;45.618;5.130;2022-11-10T10:52:11;11.20;99.90
48728;DHT22;34527;45.618;5.130;2022-11-10T10:54:37;11.30;99.90
48728;DHT22;34527;45.618;5.130;2022-11-10T10:59:31;11.30;99.90
48728;DHT22;34527;45.618;5.130;2022-11-10T11:01:58;11.30;99.90
48728;DHT22;34527;45.618;5.130;2022-11-10T11:04:35;11.20;99.90
48728;DHT22;34527;45.618;5.130;2022-11-10T11:07:18;11.30;99.90
48728;DHT22;34527;45.618;5.130;2022-11-10T11:09:44;11.40;99.90
48728;DHT22;34527;45.618;5.130;2022-11-10T11:12:25;11.40;99.90
48728;DHT22;34527;45.618;5.130;2022-11-10T11:15:12;11.40;99.90
48728;DHT22;34527;45.618;5.130;2022-11-10T11:17:39;11.50;99.90
48728;DHT22;34527;45.618;5.130;2022-11-10T11:20:12;11.50;99.90
48728;DHT22;34527;45.618;5.130;2022-11-10T11:22:53;11.80;99.90
48728;DHT22;34527;45.618;5.130;2022-11-10T11:25:32;11.70;99.90
48728;DHT22;34527;45.618;5.130;2022-11-10T11:28:13;11.70;99.90
48728;DHT22;34527;45.618;5.130;2022-11-10T11:33:28;11.70;99.90
48728;DHT22;34527;45.618;5.130;2022-11-10T11:38:32;11.70;99.90
48728;DHT22;34527;45.618;5.130;2022-11-10T11:46:43;11.70;99.90
48728;DHT22;34527;45.618;5.130;2022-11-10T12:00:24;11.90;99.90
48728;DHT22;34527;45.618;5.130;2022-11-10T12:06:05;12.00;99.90
48728;DHT22;34527;45.618;5.130;2022-11-10T12:08:43;12.00;99.90
48728;DHT22;34527;45.618;5.130;2022-11-10T12:11:31;12.20;99.90
48728;DHT22;34527;45.618;5.130;2022-11-10T12:14:16;12.20;99.90
48728;DHT22;34527;45.618;5.130;2022-11-10T12:17:02;12.20;99.90
48728;DHT22;34527;45.618;5.130;2022-11-10T12:19:48;12.10;99.90
48728;DHT22;34527;45.618;5.130;2022-11-10T12:22:21;12.10;99.90
48728;DHT22;34527;45.618;5.130;2022-11-10T12:27:49;12.20;99.90
48728;DHT22;34527;45.618;5.130;2022-11-10T12:30:18;12.30;99.90
48728;DHT22;34527;45.618;5.130;2022-11-10T12:32:49;12.40;99.90
48728;DHT22;34527;45.618;5.130;2022-11-10T12:35:21;12.40;99.90
48728;DHT22;34527;45.618;5.130;2022-11-10T12:38:11;12.30;99.90
48728;DHT22;34527;45.618;5.130;2022-11-10T12:40:45;12.30;99.90
48728;DHT22;34527;45.618;5.130;2022-11-10T12:45:59;12.40;99.90
48728;DHT22;34527;45.618;5.130;2022-11-10T12:48:33;12.40;99.90
48728;DHT22;34527;45.618;5.130;2022-11-10T12:51:12;12.40;99.90
48728;DHT22;34527;45.618;5.130;2022-11-10T12:53:42;12.30;99.90
48728;DHT22;34527;45.618;5.130;2022-11-10T12:56:26;12.30;99.90
48728;DHT22;34527;45.618;5.130;2022-11-10T12:59:20;12.30;99.90
48728;DHT22;34527;45.618;5.130;2022-11-10T13:01:57;12.30;99.90
48728;DHT22;34527;45.618;5.130;2022-11-10T13:04:23;12.30;99.90
48728;DHT22;34527;45.618;5.130;2022-11-10T13:06:52;12.30;99.90
48728;DHT22;34527;45.618;5.130;2022-11-10T13:09:31;12.40;99.90
48728;DHT22;34527;45.618;5.130;2022-11-10T13:14:35;12.50;99.90
48728;DHT22;34527;45.618;5.130;2022-11-10T13:17:03;12.50;99.90
48728;DHT22;34527;45.618;5.130;2022-11-10T13:22:02;12.60;99.90
48728;DHT22;34527;45.618;5.130;2022-11-10T13:24:31;12.60;99.90
48728;DHT22;34527;45.618;5.130;2022-11-10T13:26:58;12.60;99.90
48728;DHT22;34527;45.618;5.130;2022-11-10T13:29:28;12.60;99.90
48728;DHT22;34527;45.618;5.130;2022-11-10T13:34:36;12.50;99.90
48728;DHT22;34527;45.618;5.130;2022-11-10T13:58:46;12.50;99.90
48728;DHT22;34527;45.618;5.130;2022-11-10T14:06:37;12.50;99.90
48728;DHT22;34527;45.618;5.130;2022-11-10T14:11:49;12.30;99.90
48728;DHT22;34527;45.618;5.130;2022-11-10T14:14:38;12.30;99.90
48728;DHT22;34527;45.618;5.130;2022-11-10T14:17:25;12.30;99.90
48728;DHT22;34527;45.618;5.130;2022-11-10T14:19:52;12.30;99.90
48728;DHT22;34527;45.618;5.130;2022-11-10T14:22:38;12.20;99.90
48728;DHT22;34527;45.618;5.130;2022-11-10T14:25:30;12.30;99.90
48728;DHT22;34527;45.618;5.130;2022-11-10T14:28:45;12.30;99.90
48728;DHT22;34527;45.618;5.130;2022-11-10T14:30:50;12.30;99.90
48728;DHT22;34527;45.618;5.130;2022-11-10T14:33:17;12.30;99.90
48728;DHT22;34527;45.618;5.130;2022-11-10T14:38:20;12.20;99.90
48728;DHT22;34527;45.618;5.130;2022-11-10T14:40:47;12.10;99.90
48728;DHT22;34527;45.618;5.130;2022-11-10T14:43:36;12.10;99.90
48728;DHT22;34527;45.618;5.130;2022-11-10T14:46:05;12.10;99.90
48728;DHT22;34527;45.618;5.130;2022-11-10T14:48:33;12.10;99.90
48728;DHT22;34527;45.618;5.130;2022-11-10T14:51:12;12.20;99.90
48728;DHT22;34527;45.618;5.130;2022-11-10T14:53:45;12.30;99.90
48728;DHT22;34527;45.618;5.130;2022-11-10T14:56:26;12.30;99.90
48728;DHT22;34527;45.618;5.130;2022-11-10T14:58:54;12.20;99.90
48728;DHT22;34527;45.618;5.130;2022-11-10T15:01:34;12.30;99.90
48728;DHT22;34527;45.618;5.130;2022-11-10T15:04:06;12.30;99.90
48728;DHT22;34527;45.618;5.130;2022-11-10T15:06:33;12.30;99.90
48728;DHT22;34527;45.618;5.130;2022-11-10T15:09:14;12.30;99.90
48728;DHT22;34527;45.618;5.130;2022-11-10T15:11:53;12.20;99.90
48728;DHT22;34527;45.618;5.130;2022-11-10T15:17:14;12.20;99.90
48728;DHT22;34527;45.618;5.130;2022-11-10T15:22:14;12.30;99.90
48728;DHT22;34527;45.618;5.130;2022-11-10T15:24:42;12.20;99.90
48728;DHT22;34527;45.618;5.130;2022-11-10T15:27:26;12.10;99.90
48728;DHT22;34527;45.618;5.130;2022-11-10T15:29:53;12.00;99.90
48728;DHT22;34527;45.618;5.130;2022-11-10T15:32:22;12.00;99.90
48728;DHT22;34527;45.618;5.130;2022-11-10T15:34:49;12.00;99.90
48728;DHT22;34527;45.618;5.130;2022-11-10T15:37:27;11.90;99.90
48728;DHT22;34527;45.618;5.130;2022-11-10T15:40:32;11.90;99.90
48728;DHT22;34527;45.618;5.130;2022-11-10T15:46:01;11.80;99.90
48728;DHT22;34527;45.618;5.130;2022-11-10T15:48:36;11.90;99.90
48728;DHT22;34527;45.618;5.130;2022-11-10T15:51:04;11.80;99.90
48728;DHT22;34527;45.618;5.130;2022-11-10T15:53:38;11.90;99.90
48728;DHT22;34527;45.618;5.130;2022-11-10T15:56:05;11.90;99.90
48728;DHT22;34527;45.618;5.130;2022-11-10T15:58:34;11.90;99.90
48728;DHT22;34527;45.618;5.130;2022-11-10T16:01:00;11.90;99.90
48728;DHT22;34527;45.618;5.130;2022-11-10T16:03:26;12.00;99.90
48728;DHT22;34527;45.618;5.130;2022-11-10T16:05:52;12.00;99.90
48728;DHT22;34527;45.618;5.130;2022-11-10T16:08:20;12.00;99.90
48728;DHT22;34527;45.618;5.130;2022-11-10T16:10:50;12.00;99.90
48728;DHT22;34527;45.618;5.130;2022-11-10T16:13:28;12.00;99.90
48728;DHT22;34527;45.618;5.130;2022-11-10T16:15:56;11.90;99.90
48728;DHT22;34527;45.618;5.130;2022-11-10T16:18:25;11.90;99.90
48728;DHT22;34527;45.618;5.130;2022-11-10T16:20:51;11.90;99.90
48728;DHT22;34527;45.618;5.130;2022-11-10T16:23:18;12.00;99.90
48728;DHT22;34527;45.618;5.130;2022-11-10T16:25:45;11.80;99.90
48728;DHT22;34527;45.618;5.130;2022-11-10T16:28:16;11.90;99.90
48728;DHT22;34527;45.618;5.130;2022-11-10T16:30:44;11.90;99.90
48728;DHT22;34527;45.618;5.130;2022-11-10T16:33:18;11.90;99.90
48728;DHT22;34527;45.618;5.130;2022-11-10T16:35:51;11.90;99.90
48728;DHT22;34527;45.618;5.130;2022-11-10T16:38:25;11.90;99.90
48728;DHT22;34527;45.618;5.130;2022-11-10T16:40:58;11.90;99.90
48728;DHT22;34527;45.618;5.130;2022-11-10T16:43:25;11.90;99.90
48728;DHT22;34527;45.618;5.130;2022-11-10T16:45:56;11.90;99.90
48728;DHT22;34527;45.618;5.130;2022-11-10T16:48:27;11.90;99.90
48728;DHT22;34527;45.618;5.130;2022-11-10T16:50:55;11.90;99.90
48728;DHT22;34527;45.618;5.130;2022-11-10T16:53:24;11.90;99.90
48728;DHT22;34527;45.618;5.130;2022-11-10T16:55:51;11.90;99.90
48728;DHT22;34527;45.618;5.130;2022-11-10T16:58:17;11.80;99.90
48728;DHT22;34527;45.618;5.130;2022-11-10T17:00:44;11.80;99.90
48728;DHT22;34527;45.618;5.130;2022-11-10T17:03:15;11.80;99.90
48728;DHT22;34527;45.618;5.130;2022-11-10T17:05:42;11.90;99.90
48728;DHT22;34527;45.618;5.130;2022-11-10T17:08:26;11.80;99.90
48728;DHT22;34527;45.618;5.130;2022-11-10T17:10:52;11.80;99.90
48728;DHT22;34527;45.618;5.130;2022-11-10T17:13:22;11.80;99.90
48728;DHT22;34527;45.618;5.130;2022-11-10T17:15:49;11.80;99.90
48728;DHT22;34527;45.618;5.130;2022-11-10T17:18:19;11.80;99.90
48728;DHT22;34527;45.618;5.130;2022-11-10T17:20:48;11.80;99.90
48728;DHT22;34527;45.618;5.130;2022-11-10T17:23:17;11.80;99.90
48728;DHT22;34527;45.618;5.130;2022-11-10T17:25:44;11.70;99.90
48728;DHT22;34527;45.618;5.130;2022-11-10T17:28:12;11.70;99.90
48728;DHT22;34527;45.618;5.130;2022-11-10T17:30:38;11.80;99.90